หน้าหลัก
METAR-TAF:

METAR-TAF

ท่าอากาศยาน :

ดับลิน, ไอร์แลนด์

ละติจูด: 53-26N, ลองจิจูด: 006-15W, ความสูง: 68 ม.

การสังเกตสภาพอากาศปัจจุบัน

รายงานได้ทำขึ้นเมื่อ 18 นาทีที่แล้ว ณ เวลา 23:30 UTC
ลม 7 นอตจากตะวันตกเฉียงเหนือ
อุณหภูมิ 6°C
ความชื้น 87%
ความกดอากาศ 1022 hPa
ทัศนวิสัย 10 กม. หรือมากกว่า
มีเมฆน้อยที่ความสูง 1500 ฟุต

METAR: EIDW 182330Z 31007KT 9999 FEW015 06/04 Q1022 NOSIG

เวลา: 00:48 (23:48 UTC)

การพยากรณ์

รายงานได้ทำขึ้นเมื่อ 48 นาทีที่แล้ว ณ เวลา 23:00 UTC
การพยากรณ์มีผลตั้งแต่วันที่ 19 ณ เวลา 00 UTC จนถึงวันที่ 19 ณ เวลา 24 UTC
ลม 6 นอตจากตะวันตกเฉียงเหนือ
ทัศนวิสัย 10 กม. หรือมากกว่า
มีเมฆน้อยที่ความสูง 1500 ฟุต
กำลังกลายเป็น
ตั้งแต่วันที่ 19 ณ เวลา 12 UTC จนถึงวันที่ 19 ณ เวลา 14 UTC
ลม 8 นอตจากตะวันออกเฉียงใต้
กำลังกลายเป็น
ตั้งแต่วันที่ 19 ณ เวลา 21 UTC จนถึงวันที่ 19 ณ เวลา 23 UTC
ลม 6 นอตจากตะวันตก/ตะวันตกเฉียงใต้

TAF: EIDW 182300Z 1900/1924 32006KT 9999 FEW015 BECMG 1912/1914 14008KT BECMG 1921/1923 25006KT

สังเกตการณ์สภาพอากาศและพยากรณ์อากาศของสนามบินมากกว่า 4000 แห่ง (รายงาน METAR และ TAF).

สถานีที่ดูได้จะแสดงไว้ด้วยจุดสีเหลืองและสีแดงบนแผนที่.

เลื่อนเมาส์ไปเหนือจุดเพื่อดูชื่อสถานี.

แล้วคลิกเพื่อดูสังเกตการณ์และการพยากรณ์สภาพอากาศ.

ในการเปลี่ยนแผนที่: คลิกที่ปุ่มสีเขียวที่มีกากบาทสีดำเพื่อซูมเข้า; ที่ปุ่มสีเขียวที่มีขีดเพื่อซูมออก; หรือที่ลูกศรสีเขียวเพื่อไปยังแผนที่ที่อยู่ติดกัน.


METAR-TAF: